Blissfield, Michigan
Current Conditions -  °F | °C
As of 2:53 PM on Friday 24 Oct 2014 (Local Time) from KADG Reporting Station
Overcast Overcast  
Wind Chill: 56°   Ceiling: 3500
Heat Index: 56°   Visibility: 10mi
Dew Point: 44°   Wind: 6mph
Humidity: 64%   Direction: NA
Pressure: 30.03"   Gusts: NA
Location:  41.83°N, 83.86°W
Report Text: KADG 241853Z AUTO VRB05KT 10SM OVC035 13/07 A3003 RMK AO2 SLP174 T01330067
Loading
Personal Weather Stations






























Interactive Weather Map
Tropical Storm Tracking
New forecast layout! Learn more

10-Day Weather Forecast

Advertisements
Track Severe Weather on mobile